NWS Home NWS Lubbock West Texas Mesonet Day over Day changes as of 0227 AM, Sun Mar 24, 2019

Latest   N   C   S   Daily Sum   3hrΔ   24hrΔ   Soil Data 
Site Map   24hr Precip   72hr Precip   Google Plot


Station Time of Last Temp Today Temp Yesterday Delta-T Dewpoint Today Dewpoint Yesterday Delta-Td Delta-Pressure (mB)
Reese Center  02:20 AM 45.6 51.6 -6 29.5 48.9 -19.5 0.7
Abernathy  02:20 AM 41.7 51.8 -10.1 27.6 48.5 -21 0.9
Plainview  02:20 AM 44.8 52.4 -7.7 28 50.2 -22.2 1.3
Tahoka  02:20 AM 45.8 53.8 -8 26 50.6 -24.6 1.1
Slaton  02:20 AM 50.1 54.8 -4.8 26 51 -25 1.3
Levelland  02:20 AM 42.3 51.5 -9.2 31.8 48.5 -16.8 0.7
Roaring Springs  02:20 AM 53 56.4 -3.4 28.2 52.1 -23.9 0.8
Floydada  02:20 AM 42.3 53.3 -11 25.4 49.4 -24 1.5
Ralls  02:20 AM 49.6 53.2 -3.7 25.9 49.4 -23.6 1.2
Brownfield  02:20 AM 46.8 51.2 -4.4 25.4 49 -23.6 0.8
Muleshoe  02:20 AM 40.9 38.6 2.3 25.5 36.2 -10.7 1.1
Morton  02:20 AM 42.8 44.9 -2.2 23.2 29.3 -6.1 0.8
O'Donnell  02:20 AM 47 54.6 -7.6 27.1 49.7 -22.6 1
Seagraves  02:20 AM 43.4 48.3 -5 26.8 46.4 -19.6 0.6
Amherst  02:20 AM 46.5 46 0.6 23.8 40.5 -16.6 1.1
Plains  02:20 AM 41.3 50.2 -8.9 28.5 48 -19.5 0.6
Lamesa  02:20 AM 47.2 53.7 -6.5 29.2 50.7 -21.5 0.8
Hart  02:20 AM 41.1 46.1 -5.1 27.8 44.9 -17 1.6
Friona  02:20 AM 41.2 39 2.3 32.8 37.8 -5 1.5
Dimmitt  02:20 AM 45.4 41.7 3.7 31.6 38.7 -7.1 1.6
Tulia  02:20 AM 49.7 51.2 -1.5 26.3 47.7 -21.4 1.6
Silverton  02:20 AM 46.8 56.8 -10 27.2 51 -23.8 1
Post  02:20 AM 57.8 58.8 -1 23 52.2 -29.3 0.8
Seminole  02:10 AM 53.3 52 1.3 19.9 48.9 -29 0.7
Gail  02:20 AM 53.6 58 -4.4 27.2 51.9 -24.8 0.4
White River Lake  02:20 AM 57.7 56.5 1.2 21.6 51.2 -29.6 1
Graham  02:20 AM 56.2 57.6 -1.5 24.7 51.6 -26.9 1.2
Sundown  02:20 AM 41.2 51.2 -10 26.7 49.5 -22.8 0.5
Anton  02:20 AM 43.8 51.2 -7.4 25.3 48.1 -22.8 1.2
Fluvanna  02:20 AM 52.9 55.4 -2.5 30.7 50 -19.3 0.5
Spur  02:20 AM 44.7 57.3 -12.7 29.9 49.6 -19.7 0.9
Northwest Lubbock  02:20 AM 49.8 53.9 -4.1 22.2 52.1 -29.9 1
Guthrie  02:20 AM 53.1 58.1 -5.1 30.8 49.9 -19.1 0.5
Clarendon  02:20 AM 46 51.7 -5.7 35.9 46 -10 0.3
Paducah  02:20 AM 57.3 58.1 -0.9 29.1 51.9 -22.8 0.2
Snyder  02:20 AM 51.9 58.4 -6.5 34.5 52.7 -18.2 0.9
Memphis  02:20 AM 46.1 53.6 -7.5 40.9 47 -6.1 -0.7
Jayton  02:20 AM 52.9 59 -6.2 32.7 51 -18.3 0.7
Pampa  02:20 AM 45.9 44 1.9 36.3 43.1 -6.8 1.8
Aspermont  02:20 AM 53.2 59.1 -5.9 34.9 52.2 -17.4 0.6
Hereford  02:20 AM 44.7 35.1 9.6 32.2 33.3 -1.2 1.4
Goodlett  02:20 AM 52 60.3 -8.3 40.7 51 -10.3 -0.6
McLean  02:20 AM 51.6 47.9 3.7 37.1 43.8 -6.7 0.3
Denver City  02:20 AM 46.3 50.5 -4.2 20.4 48.4 -28 0.6
Lake Alan Henry  02:20 AM 52.3 59.7 -7.4 32.4 52.5 -20.1 0.5
Wolfforth  02:20 AM 45.7 50.7 -5 24.7 48.5 -23.8 0.8
Andrews  02:20 AM 54 53.2 0.7 25 50 -25 1
Turkey  02:20 AM 50.1 60.4 -10.4 29.2 51.1 -21.8 1
Childress  02:10 AM 50.6 61.4 -10.9 42.1 50.2 -8.1 -0.4
Tatum  02:20 AM 40.9 41.8 -0.9 24.7 21 3.7 0.9
Northfield  01:40 AM 52.2 60.7 -8.5 36.3 50.1 -13.8 0.8
Dora  02:20 AM 46.7 38 8.6 18.1 17.8 0.3 0.7
Northwest San Angelo  02:20 AM 59.6 62.1 -2.4 52.8 51 1.8 0.8
Saint Lawrence  02:20 AM 58.2 60.3 -2.1 54.1 56 -2 0.8
Haskell  02:20 AM 53.1 60.3 -7.2 47.4 51.2 -3.9 0.6
Wall  02:20 AM 61.5 61.9 -0.3 54.9 54.7 0.2 1
Seymour  02:20 AM 55.9 58.4 -2.6 52.7 48.4 4.3 -0.1
Knox City  02:20 AM 50 58.6 -8.6 37.8 52.2 -14.4 0.3
Guadalupe Mtns Park  02:20 AM 54.5 54.6 -0.1 18 11 6.9 1.7
Caprock Canyons   02:20 AM 60 59.3 0.7 21.4 51.2 -29.8 0.6
Odell  02:20 AM 54.5 59.1 -4.6 42.3 45.7 -3.4 -0.1
Coyanosa  02:20 AM 49 54.4 -5.5 33.2 52.1 -18.9 1.3
Big Lake  02:20 AM 56.9 61 -4.1 54.6 55.6 -1 1.6
Junction  02:20 AM 64.3 62.9 1.4 60.4 52.6 7.8 1.7
Hobbs  02:20 AM 47.2 51.4 -4.2 19.5 50.7 -31.2 1.1
Canadian  02:20 AM 46.9 47 -0.2 39.7 47 -7.3 0.9
Palo Duro Canyon State Park Rim  02:20 AM 49.7 45.4 4.2 32.2 42.4 -10.2 1.2
Bootleg  02:20 AM 45.7 34.6 11.1 28.4 34.6 -6.2 2
Sterling City  02:20 AM 60.2 61.7 -1.5 52.3 54.6 -2.4 0.5
Mertzon  02:20 AM 55 62.2 -7.2 51.6 55.4 -3.8 1
Persimmon Gap  02:20 AM 64 56.6 7.4 44.7 51.1 -6.4 0.8
Weinert  02:20 AM 57.1 61 -3.9 50.2 51.7 -1.5 0.4
Claude 12 Southwest  02:20 AM 54.2 50.4 3.8 31 49.9 -18.9 0.8
Amarillo 7 South Southeast  02:20 AM 41.4 36.6 4.9 35.5 36.6 -1 1.2
Umbarger  02:20 AM 44.9 36.1 8.8 35.4 34.9 0.5 1.4
Lomax  02:20 AM 51.7 59.7 -8 31.6 54.4 -22.8 1
Amarillo 9 North Northeast  02:20 AM 44.1 36.8 7.4 37.2 36.3 0.9 1.3
Aiken  02:20 AM 41.4 51.4 -10 26.8 49.2 -22.4 1
Sweetwater  02:20 AM 58.5 60.8 -2.3 46.3 52.7 -6.4 0.9
Dozier  02:20 AM 51.2 50.3 0.9 41 50.1 -9.2 -0.6
Amarillo 15 North Northwest  02:20 AM 44.4 38.1 6.3 37.7 38.1 -0.4 1.6
Menard  02:20 AM 64.1 62.8 1.3 59.5 52.6 6.9 1.7
Tarzan  02:20 AM 51.1 55.1 -4 34.3 53 -18.6 0.8
Goodnight  02:20 AM 50.6 50.8 -0.2 38.4 48.1 -9.7 0.8
Boys Ranch   02:20 AM 44.7 39 5.7 37.1 39 -1.9 2.6
Fort McKavett  02:20 AM 62.3 61.2 1 59.8 53.8 5.9 2.3
Fort Chadbourne  02:20 AM 52.9 62.7 -9.8 44.8 53.5 -8.7 0.4
Palo Duro Canyon State Park Floor  02:20 AM 43 45.9 -2.8 38.3 45.2 -6.9 1
Fort Lancaster  02:20 AM 62.7 64 -1.4 59.5 57.5 2 1.5
Dell City 1N  02:20 AM 47.4 48.4 -1 23.7 20.2 3.5 0.9
Clyde  02:20 AM 57 61.7 -4.7 55.8 51.9 3.8 0.9
Snyder SSW  02:20 AM 52.6 58.3 -5.8 34.7 52.6 -18 0.9
Panhandle  02:20 AM 48.3 41 7.2 36.5 39.4 -2.9 1.5
Vigo Park  02:20 AM 43.2 52.8 -9.7 28.8 50 -21.2 1.2
Welch  02:20 AM 43.2 51.6 -8.4 27.1 51.3 -24.2 0.8
Throckmorton  02:20 AM 60.1 60.8 -0.7 57.9 52.5 5.4 0.5
Sierra Blanca  02:20 AM 57.1 53 4.1 18.6 15.2 3.5 0.9
Fort Lewis CO  02:20 AM 32.8 26.5 6.3 22.6 21.7 0.8 1
New Home  02:20 AM 47.7 52.6 -4.9 25.6 50.6 -25 0.8
McCamey  02:20 AM 60.6 59.5 1.1 55.4 55.1 0.4 1.2
Stamford  02:20 AM 57.9 62.2 -4.3 53.3 52.2 1.1 0.9
Crowell  02:20 AM 52.2 58.5 -6.3 36.2 52.3 -16.1 0.5
Stinnett  02:20 AM 42 42.5 -0.5 38.2 42.5 -4.3 2.2
Colorado City  02:20 AM 51.5 59.7 -8.2 36 53.2 -17.2 1.1
Happy  02:20 AM 44.3 48.6 -4.2 34.2 47 -12.8 1.3
Endee  02:20 AM 44 40.9 3 35.4 40.8 -5.4 2.7
JA Ranch  02:20 AM 41.7 49.6 -7.9 35.8 47.1 -11.3 0.7
Adrian  02:20 AM 42.1 38.6 3.4 35.9 38.1 -2.3 2.9
Lesley  02:20 AM 54.6 54.8 -0.2 41.8 50.8 -9 0.5
Earth  02:20 AM 46.1 41.2 4.9 24.2 38.4 -14.2 1.2
Van Horn  02:20 AM 52.3 48.5 3.8 18.5 18.3 0.1 1.2
Rotan  02:20 AM 55.6 60.4 -4.9 33.2 52.6 -19.3 0.8
Fritch  02:20 AM 45.9 42.9 3 37.8 42 -4.1 2
Estelline  02:20 AM 47.6 58.6 -11.1 40.1 48.1 -8 0.3
Crane  02:20 AM 62.3 60.1 2.2 55 55.2 -0.2 1
Hackberry  02:20 AM 58.1 60.7 -2.6 33.4 52.3 -18.9 0.3
Romero 11 SSW  02:20 AM 42.7 40.3 2.5 36.6 39.3 -2.7 2.8
Palo Duro Reservoir 1NW  02:20 AM 40.1 43 -2.9 37 42.7 -5.7 3
South Plains 3ENE  02:20 AM 47 54.6 -7.6 26.2 50.3 -24.1 1.1
Lake McClellan 2NW  02:20 AM 52.3 49.1 3.2 35.6 46.1 -10.6 0.7
Segovia 7SSW  02:20 AM 63 61 2 59.4 52.3 7.1 1.8
Olton  02:20 AM 45.1 50.2 -5.1 25.3 47.8 -22.4 1.3

West Texas Mesonet Home   Site Map/Menu  NWS Lubbock Soil Data  Daily Summary Page  24hr Precip  72hr Precip  Google Plot